sensor_id;sensor_type;location;lat;lon;timestamp;P1;durP1;ratioP1;P2;durP2;ratioP2
71941;SDS011;59997;53.300;-6.260;2023-08-31T00:00:49;5.40;;;0.80;;
71941;SDS011;59997;53.300;-6.260;2023-08-31T00:03:16;5.55;;;0.90;;
71941;SDS011;59997;53.300;-6.260;2023-08-31T00:05:43;5.33;;;0.80;;
71941;SDS011;59997;53.300;-6.260;2023-08-31T00:08:09;4.03;;;0.70;;
71941;SDS011;59997;53.300;-6.260;2023-08-31T00:10:37;4.88;;;0.90;;
71941;SDS011;59997;53.300;-6.260;2023-08-31T00:13:03;4.60;;;0.85;;
71941;SDS011;59997;53.300;-6.260;2023-08-31T00:15:30;4.30;;;0.80;;
71941;SDS011;59997;53.300;-6.260;2023-08-31T00:18:03;4.75;;;1.00;;
71941;SDS011;59997;53.300;-6.260;2023-08-31T00:20:29;4.60;;;0.90;;
71941;SDS011;59997;53.300;-6.260;2023-08-31T00:22:56;6.45;;;1.20;;
71941;SDS011;59997;53.300;-6.260;2023-08-31T00:25:24;6.15;;;0.95;;
71941;SDS011;59997;53.300;-6.260;2023-08-31T00:27:49;5.20;;;0.90;;
71941;SDS011;59997;53.300;-6.260;2023-08-31T00:30:18;5.75;;;0.80;;
71941;SDS011;59997;53.300;-6.260;2023-08-31T00:32:43;5.57;;;0.80;;
71941;SDS011;59997;53.300;-6.260;2023-08-31T00:35:13;4.53;;;0.90;;
71941;SDS011;59997;53.300;-6.260;2023-08-31T00:37:39;5.57;;;1.10;;
71941;SDS011;59997;53.300;-6.260;2023-08-31T00:40:07;4.47;;;0.90;;
71941;SDS011;59997;53.300;-6.260;2023-08-31T00:42:34;7.05;;;1.30;;
71941;SDS011;59997;53.300;-6.260;2023-08-31T00:44:59;5.93;;;1.00;;
71941;SDS011;59997;53.300;-6.260;2023-08-31T00:47:25;5.80;;;0.90;;
71941;SDS011;59997;53.300;-6.260;2023-08-31T00:49:52;5.93;;;1.08;;
71941;SDS011;59997;53.300;-6.260;2023-08-31T00:52:19;5.88;;;0.90;;
71941;SDS011;59997;53.300;-6.260;2023-08-31T00:54:46;5.63;;;0.90;;
71941;SDS011;59997;53.300;-6.260;2023-08-31T00:57:15;4.70;;;0.68;;
71941;SDS011;59997;53.300;-6.260;2023-08-31T00:59:41;5.65;;;0.98;;
71941;SDS011;59997;53.300;-6.260;2023-08-31T01:02:11;5.35;;;0.70;;
71941;SDS011;59997;53.300;-6.260;2023-08-31T01:05:45;4.63;;;0.65;;
71941;SDS011;59997;53.300;-6.260;2023-08-31T01:11:14;4.05;;;0.70;;
71941;SDS011;59997;53.300;-6.260;2023-08-31T01:14:16;4.47;;;0.70;;
71941;SDS011;59997;53.300;-6.260;2023-08-31T01:16:49;3.42;;;0.50;;
71941;SDS011;59997;53.300;-6.260;2023-08-31T01:19:42;4.50;;;0.73;;
71941;SDS011;59997;53.300;-6.260;2023-08-31T01:22:28;3.27;;;0.43;;
71941;SDS011;59997;53.300;-6.260;2023-08-31T01:24:56;4.43;;;0.60;;
71941;SDS011;59997;53.300;-6.260;2023-08-31T01:27:23;4.40;;;0.70;;
71941;SDS011;59997;53.300;-6.260;2023-08-31T01:29:49;4.40;;;0.70;;
71941;SDS011;59997;53.300;-6.260;2023-08-31T01:32:14;5.28;;;0.85;;
71941;SDS011;59997;53.300;-6.260;2023-08-31T01:34:41;4.28;;;0.90;;
71941;SDS011;59997;53.300;-6.260;2023-08-31T01:37:10;4.17;;;0.63;;
71941;SDS011;59997;53.300;-6.260;2023-08-31T01:39:46;4.72;;;0.60;;
71941;SDS011;59997;53.300;-6.260;2023-08-31T01:42:16;4.22;;;0.60;;
71941;SDS011;59997;53.300;-6.260;2023-08-31T01:44:44;3.90;;;0.65;;
71941;SDS011;59997;53.300;-6.260;2023-08-31T01:47:15;3.88;;;0.60;;
71941;SDS011;59997;53.300;-6.260;2023-08-31T01:49:42;4.40;;;0.70;;
71941;SDS011;59997;53.300;-6.260;2023-08-31T01:52:08;4.75;;;0.60;;
71941;SDS011;59997;53.300;-6.260;2023-08-31T01:54:34;4.32;;;0.70;;
71941;SDS011;59997;53.300;-6.260;2023-08-31T01:57:04;4.32;;;0.80;;
71941;SDS011;59997;53.300;-6.260;2023-08-31T01:59:32;4.37;;;0.80;;
71941;SDS011;59997;53.300;-6.260;2023-08-31T02:01:59;4.85;;;0.75;;
71941;SDS011;59997;53.300;-6.260;2023-08-31T02:04:25;4.05;;;0.63;;
71941;SDS011;59997;53.300;-6.260;2023-08-31T02:06:51;8.68;;;0.90;;
71941;SDS011;59997;53.300;-6.260;2023-08-31T02:09:16;5.13;;;0.60;;
71941;SDS011;59997;53.300;-6.260;2023-08-31T02:11:42;3.75;;;0.50;;
71941;SDS011;59997;53.300;-6.260;2023-08-31T02:14:08;4.03;;;0.40;;
71941;SDS011;59997;53.300;-6.260;2023-08-31T02:16:34;5.95;;;0.80;;
71941;SDS011;59997;53.300;-6.260;2023-08-31T02:18:59;6.33;;;0.60;;
71941;SDS011;59997;53.300;-6.260;2023-08-31T02:21:25;7.95;;;0.90;;
71941;SDS011;59997;53.300;-6.260;2023-08-31T02:23:51;5.90;;;0.70;;
71941;SDS011;59997;53.300;-6.260;2023-08-31T02:26:17;5.10;;;0.85;;
71941;SDS011;59997;53.300;-6.260;2023-08-31T02:28:44;3.87;;;0.67;;
71941;SDS011;59997;53.300;-6.260;2023-08-31T02:31:10;4.57;;;0.70;;
71941;SDS011;59997;53.300;-6.260;2023-08-31T02:33:40;5.50;;;0.90;;
71941;SDS011;59997;53.300;-6.260;2023-08-31T02:36:06;5.97;;;0.52;;
71941;SDS011;59997;53.300;-6.260;2023-08-31T02:38:31;4.60;;;0.63;;
71941;SDS011;59997;53.300;-6.260;2023-08-31T02:40:57;4.40;;;0.50;;
71941;SDS011;59997;53.300;-6.260;2023-08-31T02:43:24;3.38;;;0.60;;
71941;SDS011;59997;53.300;-6.260;2023-08-31T02:45:58;3.65;;;0.57;;
71941;SDS011;59997;53.300;-6.260;2023-08-31T02:48:29;4.57;;;0.68;;
71941;SDS011;59997;53.300;-6.260;2023-08-31T02:50:57;4.20;;;0.60;;
71941;SDS011;59997;53.300;-6.260;2023-08-31T02:53:26;4.90;;;1.27;;
71941;SDS011;59997;53.300;-6.260;2023-08-31T02:55:53;6.05;;;0.70;;
71941;SDS011;59997;53.300;-6.260;2023-08-31T02:58:19;4.90;;;0.70;;
71941;SDS011;59997;53.300;-6.260;2023-08-31T03:00:45;3.40;;;0.60;;
71941;SDS011;59997;53.300;-6.260;2023-08-31T03:03:15;4.70;;;0.60;;
71941;SDS011;59997;53.300;-6.260;2023-08-31T03:05:41;5.70;;;0.80;;
71941;SDS011;59997;53.300;-6.260;2023-08-31T03:08:07;3.83;;;0.50;;
71941;SDS011;59997;53.300;-6.260;2023-08-31T03:10:33;3.47;;;0.47;;
71941;SDS011;59997;53.300;-6.260;2023-08-31T03:12:59;4.68;;;0.80;;
71941;SDS011;59997;53.300;-6.260;2023-08-31T03:15:24;4.60;;;0.80;;
71941;SDS011;59997;53.300;-6.260;2023-08-31T03:17:52;4.60;;;0.60;;
71941;SDS011;59997;53.300;-6.260;2023-08-31T03:20:17;5.22;;;0.70;;
71941;SDS011;59997;53.300;-6.260;2023-08-31T03:22:43;6.40;;;0.87;;
71941;SDS011;59997;53.300;-6.260;2023-08-31T03:25:08;4.73;;;0.60;;
71941;SDS011;59997;53.300;-6.260;2023-08-31T03:27:34;4.07;;;0.67;;
71941;SDS011;59997;53.300;-6.260;2023-08-31T03:30:01;4.38;;;0.77;;
71941;SDS011;59997;53.300;-6.260;2023-08-31T03:32:28;4.75;;;0.70;;
71941;SDS011;59997;53.300;-6.260;2023-08-31T03:34:54;3.17;;;0.50;;
71941;SDS011;59997;53.300;-6.260;2023-08-31T03:37:20;5.13;;;0.85;;
71941;SDS011;59997;53.300;-6.260;2023-08-31T03:39:49;5.43;;;0.70;;
71941;SDS011;59997;53.300;-6.260;2023-08-31T03:42:16;4.77;;;0.77;;
71941;SDS011;59997;53.300;-6.260;2023-08-31T03:44:42;5.35;;;1.00;;
71941;SDS011;59997;53.300;-6.260;2023-08-31T03:47:07;4.77;;;0.70;;
71941;SDS011;59997;53.300;-6.260;2023-08-31T03:49:33;4.90;;;0.90;;
71941;SDS011;59997;53.300;-6.260;2023-08-31T03:52:00;4.50;;;0.70;;
71941;SDS011;59997;53.300;-6.260;2023-08-31T03:54:28;5.53;;;0.90;;
71941;SDS011;59997;53.300;-6.260;2023-08-31T03:56:54;6.93;;;1.17;;
71941;SDS011;59997;53.300;-6.260;2023-08-31T03:59:19;4.43;;;0.63;;
71941;SDS011;59997;53.300;-6.260;2023-08-31T04:01:45;5.03;;;0.73;;
71941;SDS011;59997;53.300;-6.260;2023-08-31T04:04:11;4.30;;;0.80;;
71941;SDS011;59997;53.300;-6.260;2023-08-31T04:06:38;5.15;;;0.70;;
71941;SDS011;59997;53.300;-6.260;2023-08-31T04:09:04;4.73;;;0.70;;
71941;SDS011;59997;53.300;-6.260;2023-08-31T04:11:29;4.10;;;0.60;;
71941;SDS011;59997;53.300;-6.260;2023-08-31T04:13:55;5.57;;;0.80;;
71941;SDS011;59997;53.300;-6.260;2023-08-31T04:16:20;5.23;;;0.87;;
71941;SDS011;59997;53.300;-6.260;2023-08-31T04:18:46;5.30;;;0.83;;
71941;SDS011;59997;53.300;-6.260;2023-08-31T04:21:20;5.17;;;0.90;;
71941;SDS011;59997;53.300;-6.260;2023-08-31T04:23:46;4.38;;;0.80;;
71941;SDS011;59997;53.300;-6.260;2023-08-31T04:26:12;4.53;;;0.70;;
71941;SDS011;59997;53.300;-6.260;2023-08-31T04:28:40;5.25;;;0.70;;
71941;SDS011;59997;53.300;-6.260;2023-08-31T04:31:09;3.92;;;0.60;;
71941;SDS011;59997;53.300;-6.260;2023-08-31T04:33:37;5.78;;;1.10;;
71941;SDS011;59997;53.300;-6.260;2023-08-31T04:36:05;5.85;;;0.80;;
71941;SDS011;59997;53.300;-6.260;2023-08-31T04:38:31;5.60;;;0.63;;
71941;SDS011;59997;53.300;-6.260;2023-08-31T04:41:03;4.65;;;0.60;;
71941;SDS011;59997;53.300;-6.260;2023-08-31T04:43:29;4.88;;;0.57;;
71941;SDS011;59997;53.300;-6.260;2023-08-31T04:45:56;5.25;;;0.68;;
71941;SDS011;59997;53.300;-6.260;2023-08-31T04:48:22;5.47;;;0.90;;
71941;SDS011;59997;53.300;-6.260;2023-08-31T04:50:48;5.80;;;0.90;;
71941;SDS011;59997;53.300;-6.260;2023-08-31T04:53:14;5.22;;;0.70;;
71941;SDS011;59997;53.300;-6.260;2023-08-31T04:55:40;4.47;;;0.80;;
71941;SDS011;59997;53.300;-6.260;2023-08-31T04:58:05;4.67;;;0.70;;
71941;SDS011;59997;53.300;-6.260;2023-08-31T05:00:31;4.13;;;0.53;;
71941;SDS011;59997;53.300;-6.260;2023-08-31T05:02:57;6.15;;;0.90;;
71941;SDS011;59997;53.300;-6.260;2023-08-31T05:05:23;4.97;;;0.87;;
71941;SDS011;59997;53.300;-6.260;2023-08-31T05:07:49;4.90;;;0.80;;
71941;SDS011;59997;53.300;-6.260;2023-08-31T05:10:15;4.55;;;0.88;;
71941;SDS011;59997;53.300;-6.260;2023-08-31T05:12:42;5.37;;;0.70;;
71941;SDS011;59997;53.300;-6.260;2023-08-31T05:15:08;5.45;;;1.00;;
71941;SDS011;59997;53.300;-6.260;2023-08-31T05:17:36;7.80;;;1.00;;
71941;SDS011;59997;53.300;-6.260;2023-08-31T05:20:02;6.63;;;0.80;;
71941;SDS011;59997;53.300;-6.260;2023-08-31T05:22:29;5.70;;;1.05;;
71941;SDS011;59997;53.300;-6.260;2023-08-31T05:24:55;6.20;;;0.80;;
71941;SDS011;59997;53.300;-6.260;2023-08-31T05:27:21;4.23;;;0.60;;
71941;SDS011;59997;53.300;-6.260;2023-08-31T05:29:46;5.65;;;0.90;;
71941;SDS011;59997;53.300;-6.260;2023-08-31T05:32:12;4.10;;;0.63;;
71941;SDS011;59997;53.300;-6.260;2023-08-31T05:34:39;5.53;;;0.70;;
71941;SDS011;59997;53.300;-6.260;2023-08-31T05:37:05;4.20;;;0.67;;
71941;SDS011;59997;53.300;-6.260;2023-08-31T05:39:31;4.03;;;0.70;;
71941;SDS011;59997;53.300;-6.260;2023-08-31T05:41:57;4.07;;;0.63;;
71941;SDS011;59997;53.300;-6.260;2023-08-31T05:44:22;5.20;;;0.87;;
71941;SDS011;59997;53.300;-6.260;2023-08-31T05:46:49;5.30;;;0.60;;
71941;SDS011;59997;53.300;-6.260;2023-08-31T05:49:15;4.77;;;0.60;;
71941;SDS011;59997;53.300;-6.260;2023-08-31T05:51:41;3.80;;;0.57;;
71941;SDS011;59997;53.300;-6.260;2023-08-31T05:54:07;4.63;;;0.63;;
71941;SDS011;59997;53.300;-6.260;2023-08-31T05:56:37;3.65;;;0.55;;
71941;SDS011;59997;53.300;-6.260;2023-08-31T05:59:04;3.85;;;0.50;;
71941;SDS011;59997;53.300;-6.260;2023-08-31T06:01:31;4.32;;;0.52;;
71941;SDS011;59997;53.300;-6.260;2023-08-31T06:03:57;4.70;;;0.50;;
71941;SDS011;59997;53.300;-6.260;2023-08-31T06:06:22;4.40;;;0.70;;
71941;SDS011;59997;53.300;-6.260;2023-08-31T06:08:48;4.67;;;0.50;;
71941;SDS011;59997;53.300;-6.260;2023-08-31T06:11:15;3.95;;;0.55;;
71941;SDS011;59997;53.300;-6.260;2023-08-31T06:13:41;4.50;;;0.40;;
71941;SDS011;59997;53.300;-6.260;2023-08-31T06:16:06;3.10;;;0.40;;
71941;SDS011;59997;53.300;-6.260;2023-08-31T06:18:32;3.08;;;0.40;;
71941;SDS011;59997;53.300;-6.260;2023-08-31T06:23:54;2.95;;;0.43;;
71941;SDS011;59997;53.300;-6.260;2023-08-31T06:26:20;2.72;;;0.50;;
71941;SDS011;59997;53.300;-6.260;2023-08-31T06:28:46;3.80;;;0.50;;
71941;SDS011;59997;53.300;-6.260;2023-08-31T06:31:11;2.95;;;0.40;;
71941;SDS011;59997;53.300;-6.260;2023-08-31T06:33:38;2.67;;;0.30;;
71941;SDS011;59997;53.300;-6.260;2023-08-31T06:38:12;2.63;;;0.32;;
71941;SDS011;59997;53.300;-6.260;2023-08-31T06:40:38;3.57;;;0.50;;
71941;SDS011;59997;53.300;-6.260;2023-08-31T06:43:03;3.70;;;0.70;;
71941;SDS011;59997;53.300;-6.260;2023-08-31T06:45:29;4.27;;;0.40;;
71941;SDS011;59997;53.300;-6.260;2023-08-31T06:47:54;3.60;;;0.70;;
71941;SDS011;59997;53.300;-6.260;2023-08-31T06:50:20;4.20;;;0.50;;
71941;SDS011;59997;53.300;-6.260;2023-08-31T06:52:45;2.87;;;0.50;;
71941;SDS011;59997;53.300;-6.260;2023-08-31T06:55:11;3.58;;;0.82;;
71941;SDS011;59997;53.300;-6.260;2023-08-31T06:57:37;2.67;;;0.47;;
71941;SDS011;59997;53.300;-6.260;2023-08-31T07:00:03;3.15;;;0.68;;
71941;SDS011;59997;53.300;-6.260;2023-08-31T07:02:29;4.60;;;0.50;;
71941;SDS011;59997;53.300;-6.260;2023-08-31T07:04:55;3.57;;;0.40;;
71941;SDS011;59997;53.300;-6.260;2023-08-31T07:07:20;3.37;;;0.50;;
71941;SDS011;59997;53.300;-6.260;2023-08-31T07:09:46;2.80;;;0.30;;
71941;SDS011;59997;53.300;-6.260;2023-08-31T07:12:13;4.53;;;0.40;;
71941;SDS011;59997;53.300;-6.260;2023-08-31T07:14:39;2.60;;;0.40;;
71941;SDS011;59997;53.300;-6.260;2023-08-31T07:17:04;3.40;;;0.40;;
71941;SDS011;59997;53.300;-6.260;2023-08-31T07:19:30;2.97;;;0.40;;
71941;SDS011;59997;53.300;-6.260;2023-08-31T07:21:55;2.10;;;0.30;;
71941;SDS011;59997;53.300;-6.260;2023-08-31T07:24:22;3.13;;;0.40;;
71941;SDS011;59997;53.300;-6.260;2023-08-31T07:26:48;3.70;;;0.40;;
71941;SDS011;59997;53.300;-6.260;2023-08-31T07:29:13;3.07;;;0.57;;
71941;SDS011;59997;53.300;-6.260;2023-08-31T07:31:39;2.43;;;0.33;;
71941;SDS011;59997;53.300;-6.260;2023-08-31T07:34:05;3.65;;;0.60;;
71941;SDS011;59997;53.300;-6.260;2023-08-31T07:36:30;4.77;;;0.60;;
71941;SDS011;59997;53.300;-6.260;2023-08-31T07:38:56;3.50;;;0.50;;
71941;SDS011;59997;53.300;-6.260;2023-08-31T07:41:21;3.87;;;0.70;;
71941;SDS011;59997;53.300;-6.260;2023-08-31T07:43:47;3.80;;;0.50;;
71941;SDS011;59997;53.300;-6.260;2023-08-31T07:46:14;4.18;;;0.70;;
71941;SDS011;59997;53.300;-6.260;2023-08-31T07:48:39;5.67;;;0.83;;
71941;SDS011;59997;53.300;-6.260;2023-08-31T07:51:05;3.20;;;0.50;;
71941;SDS011;59997;53.300;-6.260;2023-08-31T07:53:31;4.60;;;0.70;;
71941;SDS011;59997;53.300;-6.260;2023-08-31T07:55:56;5.43;;;1.33;;
71941;SDS011;59997;53.300;-6.260;2023-08-31T07:58:22;3.73;;;0.60;;
71941;SDS011;59997;53.300;-6.260;2023-08-31T08:00:48;4.15;;;0.60;;
71941;SDS011;59997;53.300;-6.260;2023-08-31T08:03:14;4.63;;;0.50;;
71941;SDS011;59997;53.300;-6.260;2023-08-31T08:05:40;3.28;;;0.50;;
71941;SDS011;59997;53.300;-6.260;2023-08-31T08:08:06;4.47;;;0.70;;
71941;SDS011;59997;53.300;-6.260;2023-08-31T08:10:32;2.40;;;0.40;;
71941;SDS011;59997;53.300;-6.260;2023-08-31T08:12:58;2.05;;;0.30;;
71941;SDS011;59997;53.300;-6.260;2023-08-31T08:15:24;4.23;;;0.50;;
71941;SDS011;59997;53.300;-6.260;2023-08-31T08:17:49;2.90;;;0.45;;
71941;SDS011;59997;53.300;-6.260;2023-08-31T08:20:15;2.73;;;0.40;;
71941;SDS011;59997;53.300;-6.260;2023-08-31T08:22:40;2.50;;;0.40;;
71941;SDS011;59997;53.300;-6.260;2023-08-31T08:25:06;2.90;;;0.50;;
71941;SDS011;59997;53.300;-6.260;2023-08-31T08:27:32;1.80;;;0.23;;
71941;SDS011;59997;53.300;-6.260;2023-08-31T08:30:02;2.42;;;0.40;;
71941;SDS011;59997;53.300;-6.260;2023-08-31T08:32:28;3.13;;;0.50;;
71941;SDS011;59997;53.300;-6.260;2023-08-31T08:34:54;3.33;;;0.50;;
71941;SDS011;59997;53.300;-6.260;2023-08-31T08:37:19;2.13;;;0.30;;
71941;SDS011;59997;53.300;-6.260;2023-08-31T08:39:48;2.13;;;0.30;;
71941;SDS011;59997;53.300;-6.260;2023-08-31T08:42:15;2.17;;;0.40;;
71941;SDS011;59997;53.300;-6.260;2023-08-31T08:44:43;2.60;;;0.40;;
71941;SDS011;59997;53.300;-6.260;2023-08-31T08:47:09;2.70;;;0.40;;
71941;SDS011;59997;53.300;-6.260;2023-08-31T08:49:36;3.80;;;0.40;;
71941;SDS011;59997;53.300;-6.260;2023-08-31T08:52:02;2.27;;;0.33;;
71941;SDS011;59997;53.300;-6.260;2023-08-31T08:54:28;3.30;;;0.40;;
71941;SDS011;59997;53.300;-6.260;2023-08-31T08:56:53;2.80;;;0.40;;
71941;SDS011;59997;53.300;-6.260;2023-08-31T08:59:19;3.65;;;0.40;;
71941;SDS011;59997;53.300;-6.260;2023-08-31T09:01:45;2.67;;;0.50;;
71941;SDS011;59997;53.300;-6.260;2023-08-31T09:04:11;2.70;;;0.57;;
71941;SDS011;59997;53.300;-6.260;2023-08-31T09:06:36;2.80;;;0.37;;
71941;SDS011;59997;53.300;-6.260;2023-08-31T09:09:02;2.77;;;0.50;;
71941;SDS011;59997;53.300;-6.260;2023-08-31T09:11:28;2.70;;;0.40;;
71941;SDS011;59997;53.300;-6.260;2023-08-31T09:13:54;2.33;;;0.30;;
71941;SDS011;59997;53.300;-6.260;2023-08-31T09:16:26;2.47;;;0.47;;
71941;SDS011;59997;53.300;-6.260;2023-08-31T09:18:53;2.50;;;0.50;;
71941;SDS011;59997;53.300;-6.260;2023-08-31T09:21:22;3.85;;;0.50;;
71941;SDS011;59997;53.300;-6.260;2023-08-31T09:23:59;3.95;;;0.50;;
71941;SDS011;59997;53.300;-6.260;2023-08-31T09:26:24;3.47;;;0.60;;
71941;SDS011;59997;53.300;-6.260;2023-08-31T09:28:50;3.00;;;0.60;;
71941;SDS011;59997;53.300;-6.260;2023-08-31T09:31:16;3.38;;;0.50;;
71941;SDS011;59997;53.300;-6.260;2023-08-31T09:33:51;4.10;;;0.50;;
71941;SDS011;59997;53.300;-6.260;2023-08-31T09:36:17;3.47;;;0.60;;
71941;SDS011;59997;53.300;-6.260;2023-08-31T09:38:44;4.55;;;0.73;;
71941;SDS011;59997;53.300;-6.260;2023-08-31T09:41:10;2.60;;;0.40;;
71941;SDS011;59997;53.300;-6.260;2023-08-31T09:43:37;3.10;;;0.50;;
71941;SDS011;59997;53.300;-6.260;2023-08-31T09:46:03;4.77;;;0.70;;
71941;SDS011;59997;53.300;-6.260;2023-08-31T09:48:30;3.55;;;0.60;;
71941;SDS011;59997;53.300;-6.260;2023-08-31T09:50:56;3.78;;;0.52;;
71941;SDS011;59997;53.300;-6.260;2023-08-31T09:53:23;4.20;;;0.73;;
71941;SDS011;59997;53.300;-6.260;2023-08-31T09:55:50;3.70;;;0.70;;
71941;SDS011;59997;53.300;-6.260;2023-08-31T09:58:18;3.33;;;0.60;;
71941;SDS011;59997;53.300;-6.260;2023-08-31T10:00:48;4.93;;;0.50;;
71941;SDS011;59997;53.300;-6.260;2023-08-31T10:03:15;2.80;;;0.50;;
71941;SDS011;59997;53.300;-6.260;2023-08-31T10:05:44;4.13;;;0.73;;
71941;SDS011;59997;53.300;-6.260;2023-08-31T10:08:16;2.97;;;0.50;;
71941;SDS011;59997;53.300;-6.260;2023-08-31T10:10:43;3.35;;;0.70;;
71941;SDS011;59997;53.300;-6.260;2023-08-31T10:13:09;3.80;;;0.70;;
71941;SDS011;59997;53.300;-6.260;2023-08-31T10:15:36;3.37;;;0.70;;
71941;SDS011;59997;53.300;-6.260;2023-08-31T10:18:03;3.78;;;0.63;;
71941;SDS011;59997;53.300;-6.260;2023-08-31T10:20:32;4.07;;;0.75;;
71941;SDS011;59997;53.300;-6.260;2023-08-31T10:23:08;4.32;;;0.95;;
71941;SDS011;59997;53.300;-6.260;2023-08-31T10:28:17;4.28;;;0.93;;
71941;SDS011;59997;53.300;-6.260;2023-08-31T10:36:38;3.53;;;0.77;;
71941;SDS011;59997;53.300;-6.260;2023-08-31T10:39:19;3.83;;;0.70;;
71941;SDS011;59997;53.300;-6.260;2023-08-31T10:41:51;4.28;;;0.80;;
71941;SDS011;59997;53.300;-6.260;2023-08-31T10:44:19;3.95;;;0.98;;
71941;SDS011;59997;53.300;-6.260;2023-08-31T10:46:46;4.10;;;0.95;;
71941;SDS011;59997;53.300;-6.260;2023-08-31T10:49:14;3.88;;;0.75;;
71941;SDS011;59997;53.300;-6.260;2023-08-31T10:51:41;3.63;;;0.60;;
71941;SDS011;59997;53.300;-6.260;2023-08-31T10:54:10;3.80;;;0.70;;
71941;SDS011;59997;53.300;-6.260;2023-08-31T10:57:00;3.40;;;0.60;;
71941;SDS011;59997;53.300;-6.260;2023-08-31T11:02:10;4.15;;;0.60;;
71941;SDS011;59997;53.300;-6.260;2023-08-31T11:05:00;4.73;;;0.67;;
71941;SDS011;59997;53.300;-6.260;2023-08-31T11:07:29;3.25;;;0.60;;
71941;SDS011;59997;53.300;-6.260;2023-08-31T11:10:06;3.58;;;0.70;;
71941;SDS011;59997;53.300;-6.260;2023-08-31T11:12:35;3.67;;;0.70;;
71941;SDS011;59997;53.300;-6.260;2023-08-31T11:15:01;3.70;;;0.87;;
71941;SDS011;59997;53.300;-6.260;2023-08-31T11:17:28;4.63;;;0.80;;
71941;SDS011;59997;53.300;-6.260;2023-08-31T11:19:55;3.75;;;0.80;;
71941;SDS011;59997;53.300;-6.260;2023-08-31T11:22:21;5.07;;;1.05;;
71941;SDS011;59997;53.300;-6.260;2023-08-31T11:24:47;4.03;;;1.10;;
71941;SDS011;59997;53.300;-6.260;2023-08-31T11:27:13;3.65;;;0.70;;
71941;SDS011;59997;53.300;-6.260;2023-08-31T11:29:43;3.90;;;0.77;;
71941;SDS011;59997;53.300;-6.260;2023-08-31T11:32:09;3.67;;;0.80;;
71941;SDS011;59997;53.300;-6.260;2023-08-31T11:34:34;4.70;;;1.00;;
71941;SDS011;59997;53.300;-6.260;2023-08-31T11:37:01;4.13;;;0.95;;
71941;SDS011;59997;53.300;-6.260;2023-08-31T11:39:28;3.90;;;0.90;;
71941;SDS011;59997;53.300;-6.260;2023-08-31T11:41:56;4.82;;;1.10;;
71941;SDS011;59997;53.300;-6.260;2023-08-31T11:44:22;3.75;;;0.70;;
71941;SDS011;59997;53.300;-6.260;2023-08-31T11:46:48;3.50;;;0.73;;
71941;SDS011;59997;53.300;-6.260;2023-08-31T11:49:15;5.10;;;1.10;;
71941;SDS011;59997;53.300;-6.260;2023-08-31T11:51:42;3.65;;;0.80;;
71941;SDS011;59997;53.300;-6.260;2023-08-31T11:54:09;3.78;;;0.93;;
71941;SDS011;59997;53.300;-6.260;2023-08-31T11:56:42;3.60;;;0.77;;
71941;SDS011;59997;53.300;-6.260;2023-08-31T11:59:16;3.55;;;0.57;;
71941;SDS011;59997;53.300;-6.260;2023-08-31T12:01:48;4.60;;;0.60;;
71941;SDS011;59997;53.300;-6.260;2023-08-31T12:04:21;3.92;;;0.80;;
71941;SDS011;59997;53.300;-6.260;2023-08-31T12:06:58;4.20;;;0.80;;
71941;SDS011;59997;53.300;-6.260;2023-08-31T12:09:27;3.90;;;0.70;;
71941;SDS011;59997;53.300;-6.260;2023-08-31T12:11:53;4.30;;;0.80;;
71941;SDS011;59997;53.300;-6.260;2023-08-31T12:14:27;4.55;;;0.63;;
71941;SDS011;59997;53.300;-6.260;2023-08-31T12:17:03;3.30;;;0.50;;
71941;SDS011;59997;53.300;-6.260;2023-08-31T12:19:30;3.42;;;0.50;;
71941;SDS011;59997;53.300;-6.260;2023-08-31T12:21:57;4.82;;;0.75;;
71941;SDS011;59997;53.300;-6.260;2023-08-31T12:24:23;4.07;;;0.70;;
71941;SDS011;59997;53.300;-6.260;2023-08-31T12:26:49;4.13;;;0.77;;
71941;SDS011;59997;53.300;-6.260;2023-08-31T12:29:15;3.80;;;0.65;;
71941;SDS011;59997;53.300;-6.260;2023-08-31T12:31:41;3.50;;;0.80;;
71941;SDS011;59997;53.300;-6.260;2023-08-31T12:34:06;3.87;;;0.70;;
71941;SDS011;59997;53.300;-6.260;2023-08-31T12:36:32;2.80;;;0.50;;
71941;SDS011;59997;53.300;-6.260;2023-08-31T12:38:58;3.78;;;0.70;;
71941;SDS011;59997;53.300;-6.260;2023-08-31T12:41:26;3.55;;;0.70;;
71941;SDS011;59997;53.300;-6.260;2023-08-31T12:43:53;4.00;;;0.70;;
71941;SDS011;59997;53.300;-6.260;2023-08-31T12:46:19;4.13;;;0.80;;
71941;SDS011;59997;53.300;-6.260;2023-08-31T12:48:44;3.10;;;0.60;;
71941;SDS011;59997;53.300;-6.260;2023-08-31T12:51:10;3.60;;;0.50;;
71941;SDS011;59997;53.300;-6.260;2023-08-31T12:53:38;4.37;;;0.73;;
71941;SDS011;59997;53.300;-6.260;2023-08-31T12:56:04;3.33;;;0.60;;
71941;SDS011;59997;53.300;-6.260;2023-08-31T12:58:31;4.28;;;0.60;;
71941;SDS011;59997;53.300;-6.260;2023-08-31T13:00:59;3.70;;;0.80;;
71941;SDS011;59997;53.300;-6.260;2023-08-31T13:03:25;5.07;;;0.80;;
71941;SDS011;59997;53.300;-6.260;2023-08-31T13:05:51;4.45;;;0.80;;
71941;SDS011;59997;53.300;-6.260;2023-08-31T13:08:17;3.22;;;0.60;;
71941;SDS011;59997;53.300;-6.260;2023-08-31T13:10:42;3.83;;;0.80;;
71941;SDS011;59997;53.300;-6.260;2023-08-31T13:13:08;3.15;;;0.60;;
71941;SDS011;59997;53.300;-6.260;2023-08-31T13:15:34;4.13;;;0.70;;
71941;SDS011;59997;53.300;-6.260;2023-08-31T13:17:59;4.00;;;0.80;;
71941;SDS011;59997;53.300;-6.260;2023-08-31T13:20:25;3.70;;;0.77;;
71941;SDS011;59997;53.300;-6.260;2023-08-31T13:22:52;3.38;;;0.60;;
71941;SDS011;59997;53.300;-6.260;2023-08-31T13:25:17;4.30;;;0.70;;
71941;SDS011;59997;53.300;-6.260;2023-08-31T13:27:43;3.78;;;0.77;;
71941;SDS011;59997;53.300;-6.260;2023-08-31T13:30:09;3.70;;;0.87;;
71941;SDS011;59997;53.300;-6.260;2023-08-31T13:32:37;4.00;;;0.63;;
71941;SDS011;59997;53.300;-6.260;2023-08-31T13:35:03;5.03;;;1.00;;
71941;SDS011;59997;53.300;-6.260;2023-08-31T13:37:32;4.97;;;0.88;;
71941;SDS011;59997;53.300;-6.260;2023-08-31T13:39:58;5.17;;;0.80;;
71941;SDS011;59997;53.300;-6.260;2023-08-31T13:42:25;5.10;;;1.08;;
71941;SDS011;59997;53.300;-6.260;2023-08-31T13:44:50;3.80;;;1.00;;
71941;SDS011;59997;53.300;-6.260;2023-08-31T13:47:16;4.57;;;1.00;;
71941;SDS011;59997;53.300;-6.260;2023-08-31T13:49:41;4.23;;;1.00;;
71941;SDS011;59997;53.300;-6.260;2023-08-31T13:52:07;4.67;;;1.00;;
71941;SDS011;59997;53.300;-6.260;2023-08-31T13:54:34;3.90;;;1.00;;
71941;SDS011;59997;53.300;-6.260;2023-08-31T13:57:00;4.17;;;0.80;;
71941;SDS011;59997;53.300;-6.260;2023-08-31T13:59:25;3.85;;;0.80;;
71941;SDS011;59997;53.300;-6.260;2023-08-31T14:01:53;3.53;;;0.83;;
71941;SDS011;59997;53.300;-6.260;2023-08-31T14:04:18;4.28;;;0.70;;
71941;SDS011;59997;53.300;-6.260;2023-08-31T14:06:44;3.45;;;0.70;;
71941;SDS011;59997;53.300;-6.260;2023-08-31T14:09:10;4.07;;;0.93;;
71941;SDS011;59997;53.300;-6.260;2023-08-31T14:11:35;3.83;;;0.70;;
71941;SDS011;59997;53.300;-6.260;2023-08-31T14:14:04;3.63;;;0.60;;
71941;SDS011;59997;53.300;-6.260;2023-08-31T14:16:35;3.50;;;0.70;;
71941;SDS011;59997;53.300;-6.260;2023-08-31T14:19:05;5.60;;;0.90;;
71941;SDS011;59997;53.300;-6.260;2023-08-31T14:21:31;4.80;;;0.70;;
71941;SDS011;59997;53.300;-6.260;2023-08-31T14:23:56;3.80;;;0.82;;
71941;SDS011;59997;53.300;-6.260;2023-08-31T14:26:22;4.27;;;0.87;;
71941;SDS011;59997;53.300;-6.260;2023-08-31T14:28:49;5.13;;;0.90;;
71941;SDS011;59997;53.300;-6.260;2023-08-31T14:31:18;3.83;;;0.90;;
71941;SDS011;59997;53.300;-6.260;2023-08-31T14:33:44;4.80;;;1.00;;
71941;SDS011;59997;53.300;-6.260;2023-08-31T14:36:10;5.10;;;0.97;;
71941;SDS011;59997;53.300;-6.260;2023-08-31T14:38:35;5.07;;;1.00;;
71941;SDS011;59997;53.300;-6.260;2023-08-31T14:41:00;4.67;;;1.17;;
71941;SDS011;59997;53.300;-6.260;2023-08-31T14:43:27;4.47;;;0.90;;
71941;SDS011;59997;53.300;-6.260;2023-08-31T14:45:52;4.57;;;1.00;;
71941;SDS011;59997;53.300;-6.260;2023-08-31T14:48:18;4.40;;;0.90;;
71941;SDS011;59997;53.300;-6.260;2023-08-31T14:50:43;4.00;;;0.90;;
71941;SDS011;59997;53.300;-6.260;2023-08-31T14:53:09;4.00;;;1.00;;